sensor_id;sensor_type;location;lat;lon;timestamp;temperature;humidity
46356;DHT22;32066;49.474;11.106;2023-05-10T00:01:43;18.80;68.40
46356;DHT22;32066;49.474;11.106;2023-05-10T00:04:12;18.80;68.80
46356;DHT22;32066;49.474;11.106;2023-05-10T00:06:40;18.80;69.70
46356;DHT22;32066;49.474;11.106;2023-05-10T00:09:12;18.80;71.10
46356;DHT22;32066;49.474;11.106;2023-05-10T00:11:41;18.80;71.60
46356;DHT22;32066;49.474;11.106;2023-05-10T00:14:09;18.80;72.60
46356;DHT22;32066;49.474;11.106;2023-05-10T00:16:38;18.70;74.10
46356;DHT22;32066;49.474;11.106;2023-05-10T00:19:06;18.60;74.90
46356;DHT22;32066;49.474;11.106;2023-05-10T00:21:35;18.60;75.70
46356;DHT22;32066;49.474;11.106;2023-05-10T00:24:05;18.40;77.00
46356;DHT22;32066;49.474;11.106;2023-05-10T00:26:36;18.30;77.60
46356;DHT22;32066;49.474;11.106;2023-05-10T00:29:04;18.10;78.40
46356;DHT22;32066;49.474;11.106;2023-05-10T00:31:33;18.00;79.50
46356;DHT22;32066;49.474;11.106;2023-05-10T00:34:02;18.10;80.20
46356;DHT22;32066;49.474;11.106;2023-05-10T00:36:31;18.00;81.20
46356;DHT22;32066;49.474;11.106;2023-05-10T00:39:00;18.10;81.90
46356;DHT22;32066;49.474;11.106;2023-05-10T00:41:29;17.90;83.50
46356;DHT22;32066;49.474;11.106;2023-05-10T00:44:01;17.90;84.70
46356;DHT22;32066;49.474;11.106;2023-05-10T00:46:30;17.80;85.80
46356;DHT22;32066;49.474;11.106;2023-05-10T00:48:59;17.90;86.60
46356;DHT22;32066;49.474;11.106;2023-05-10T00:51:29;17.90;87.10
46356;DHT22;32066;49.474;11.106;2023-05-10T00:53:58;18.00;87.90
46356;DHT22;32066;49.474;11.106;2023-05-10T00:56:27;18.10;88.80
46356;DHT22;32066;49.474;11.106;2023-05-10T00:58:56;18.20;88.90
46356;DHT22;32066;49.474;11.106;2023-05-10T01:01:27;18.20;89.80
46356;DHT22;32066;49.474;11.106;2023-05-10T01:03:57;18.20;90.30
46356;DHT22;32066;49.474;11.106;2023-05-10T01:06:26;18.20;90.20
46356;DHT22;32066;49.474;11.106;2023-05-10T01:08:55;18.20;90.80
46356;DHT22;32066;49.474;11.106;2023-05-10T01:11:24;18.10;90.90
46356;DHT22;32066;49.474;11.106;2023-05-10T01:13:55;18.00;91.20
46356;DHT22;32066;49.474;11.106;2023-05-10T01:16:29;18.10;91.20
46356;DHT22;32066;49.474;11.106;2023-05-10T01:18:58;18.00;91.70
46356;DHT22;32066;49.474;11.106;2023-05-10T01:21:31;17.90;92.40
46356;DHT22;32066;49.474;11.106;2023-05-10T01:27:39;17.70;93.20
46356;DHT22;32066;49.474;11.106;2023-05-10T01:33:32;17.80;93.80
46356;DHT22;32066;49.474;11.106;2023-05-10T01:36:05;17.70;94.20
46356;DHT22;32066;49.474;11.106;2023-05-10T01:38:42;17.80;94.50
46356;DHT22;32066;49.474;11.106;2023-05-10T01:41:16;17.80;94.80
46356;DHT22;32066;49.474;11.106;2023-05-10T01:43:54;17.70;95.00
46356;DHT22;32066;49.474;11.106;2023-05-10T01:46:28;17.60;95.80
46356;DHT22;32066;49.474;11.106;2023-05-10T01:49:03;17.60;96.10
46356;DHT22;32066;49.474;11.106;2023-05-10T01:51:41;17.50;96.60
46356;DHT22;32066;49.474;11.106;2023-05-10T01:54:14;17.50;96.80
46356;DHT22;32066;49.474;11.106;2023-05-10T01:56:48;17.60;96.80
46356;DHT22;32066;49.474;11.106;2023-05-10T01:59:19;17.70;96.80
46356;DHT22;32066;49.474;11.106;2023-05-10T02:01:50;17.70;96.70
46356;DHT22;32066;49.474;11.106;2023-05-10T02:04:22;17.70;96.80
46356;DHT22;32066;49.474;11.106;2023-05-10T02:06:53;17.70;96.90
46356;DHT22;32066;49.474;11.106;2023-05-10T02:09:23;17.80;96.80
46356;DHT22;32066;49.474;11.106;2023-05-10T02:11:54;17.60;97.10
46356;DHT22;32066;49.474;11.106;2023-05-10T02:14:24;17.70;97.50
46356;DHT22;32066;49.474;11.106;2023-05-10T02:16:55;17.50;97.70
46356;DHT22;32066;49.474;11.106;2023-05-10T02:19:29;17.60;97.80
46356;DHT22;32066;49.474;11.106;2023-05-10T02:21:59;17.50;98.10
46356;DHT22;32066;49.474;11.106;2023-05-10T02:24:29;17.50;98.20
46356;DHT22;32066;49.474;11.106;2023-05-10T02:27:00;17.50;98.20
46356;DHT22;32066;49.474;11.106;2023-05-10T02:29:31;17.30;99.00
46356;DHT22;32066;49.474;11.106;2023-05-10T02:32:01;17.30;99.00
46356;DHT22;32066;49.474;11.106;2023-05-10T02:34:33;17.20;99.50
46356;DHT22;32066;49.474;11.106;2023-05-10T02:37:02;17.10;99.90
46356;DHT22;32066;49.474;11.106;2023-05-10T02:39:32;17.10;99.90
46356;DHT22;32066;49.474;11.106;2023-05-10T02:42:03;17.00;99.90
46356;DHT22;32066;49.474;11.106;2023-05-10T02:44:34;17.00;99.90
46356;DHT22;32066;49.474;11.106;2023-05-10T02:47:04;17.10;99.90
46356;DHT22;32066;49.474;11.106;2023-05-10T02:49:35;17.20;99.90
46356;DHT22;32066;49.474;11.106;2023-05-10T02:52:05;17.00;99.90
46356;DHT22;32066;49.474;11.106;2023-05-10T02:54:41;17.00;99.90
46356;DHT22;32066;49.474;11.106;2023-05-10T02:57:15;17.10;99.90
46356;DHT22;32066;49.474;11.106;2023-05-10T02:59:45;16.80;99.90
46356;DHT22;32066;49.474;11.106;2023-05-10T03:02:13;16.60;99.90
46356;DHT22;32066;49.474;11.106;2023-05-10T03:04:45;16.80;99.90
46356;DHT22;32066;49.474;11.106;2023-05-10T03:07:13;16.80;99.90
46356;DHT22;32066;49.474;11.106;2023-05-10T03:09:46;17.00;99.90
46356;DHT22;32066;49.474;11.106;2023-05-10T03:12:20;17.00;99.90
46356;DHT22;32066;49.474;11.106;2023-05-10T03:15:00;17.10;99.90
46356;DHT22;32066;49.474;11.106;2023-05-10T03:17:39;17.20;99.90
46356;DHT22;32066;49.474;11.106;2023-05-10T03:20:19;17.30;99.90
46356;DHT22;32066;49.474;11.106;2023-05-10T03:22:53;17.20;99.90
46356;DHT22;32066;49.474;11.106;2023-05-10T03:25:24;17.10;99.90
46356;DHT22;32066;49.474;11.106;2023-05-10T03:27:54;17.00;99.90
46356;DHT22;32066;49.474;11.106;2023-05-10T03:30:24;17.00;99.90
46356;DHT22;32066;49.474;11.106;2023-05-10T03:32:53;16.80;99.90
46356;DHT22;32066;49.474;11.106;2023-05-10T03:35:25;16.80;99.90
46356;DHT22;32066;49.474;11.106;2023-05-10T03:37:54;16.80;99.90
46356;DHT22;32066;49.474;11.106;2023-05-10T03:40:23;16.90;99.90
46356;DHT22;32066;49.474;11.106;2023-05-10T03:42:52;17.00;99.90
46356;DHT22;32066;49.474;11.106;2023-05-10T03:45:20;16.90;99.90
46356;DHT22;32066;49.474;11.106;2023-05-10T03:47:49;16.80;99.90
46356;DHT22;32066;49.474;11.106;2023-05-10T03:50:18;16.80;99.90
46356;DHT22;32066;49.474;11.106;2023-05-10T03:52:50;16.80;99.90
46356;DHT22;32066;49.474;11.106;2023-05-10T03:55:18;16.80;99.90
46356;DHT22;32066;49.474;11.106;2023-05-10T03:57:48;16.80;99.90
46356;DHT22;32066;49.474;11.106;2023-05-10T04:00:20;16.80;99.90
46356;DHT22;32066;49.474;11.106;2023-05-10T04:02:52;16.80;99.90
46356;DHT22;32066;49.474;11.106;2023-05-10T04:05:22;16.70;99.90
46356;DHT22;32066;49.474;11.106;2023-05-10T04:07:55;16.70;99.90
46356;DHT22;32066;49.474;11.106;2023-05-10T04:10:23;16.70;99.90
46356;DHT22;32066;49.474;11.106;2023-05-10T04:12:52;16.60;99.90
46356;DHT22;32066;49.474;11.106;2023-05-10T04:15:20;16.60;99.90
46356;DHT22;32066;49.474;11.106;2023-05-10T04:17:49;16.50;99.90
46356;DHT22;32066;49.474;11.106;2023-05-10T04:20:19;16.50;99.90
46356;DHT22;32066;49.474;11.106;2023-05-10T04:22:47;16.50;99.90
46356;DHT22;32066;49.474;11.106;2023-05-10T04:25:19;16.50;99.90
46356;DHT22;32066;49.474;11.106;2023-05-10T04:27:48;16.40;99.90
46356;DHT22;32066;49.474;11.106;2023-05-10T04:30:16;16.40;99.90
46356;DHT22;32066;49.474;11.106;2023-05-10T04:32:45;16.50;99.90
46356;DHT22;32066;49.474;11.106;2023-05-10T04:35:14;16.50;99.90
46356;DHT22;32066;49.474;11.106;2023-05-10T04:37:43;16.60;99.90
46356;DHT22;32066;49.474;11.106;2023-05-10T04:40:12;16.50;99.90
46356;DHT22;32066;49.474;11.106;2023-05-10T04:42:43;16.50;99.90
46356;DHT22;32066;49.474;11.106;2023-05-10T04:45:12;16.50;99.90
46356;DHT22;32066;49.474;11.106;2023-05-10T04:47:42;16.50;99.90
46356;DHT22;32066;49.474;11.106;2023-05-10T04:50:10;16.60;99.90
46356;DHT22;32066;49.474;11.106;2023-05-10T04:52:39;16.60;99.90
46356;DHT22;32066;49.474;11.106;2023-05-10T04:55:08;16.50;99.90
46356;DHT22;32066;49.474;11.106;2023-05-10T04:57:36;16.50;99.90
46356;DHT22;32066;49.474;11.106;2023-05-10T05:00:09;16.40;99.90
46356;DHT22;32066;49.474;11.106;2023-05-10T05:02:38;16.30;99.90
46356;DHT22;32066;49.474;11.106;2023-05-10T05:05:07;16.40;99.90
46356;DHT22;32066;49.474;11.106;2023-05-10T05:07:36;16.40;99.90
46356;DHT22;32066;49.474;11.106;2023-05-10T05:10:06;16.40;99.90
46356;DHT22;32066;49.474;11.106;2023-05-10T05:12:35;16.30;99.90
46356;DHT22;32066;49.474;11.106;2023-05-10T05:15:04;16.30;99.90
46356;DHT22;32066;49.474;11.106;2023-05-10T05:17:37;16.30;99.90
46356;DHT22;32066;49.474;11.106;2023-05-10T05:20:07;16.40;99.90
46356;DHT22;32066;49.474;11.106;2023-05-10T05:22:36;16.40;99.90
46356;DHT22;32066;49.474;11.106;2023-05-10T05:25:05;16.40;99.90
46356;DHT22;32066;49.474;11.106;2023-05-10T05:27:34;16.50;99.50
46356;DHT22;32066;49.474;11.106;2023-05-10T05:30:04;16.40;99.60
46356;DHT22;32066;49.474;11.106;2023-05-10T05:32:33;16.40;99.70
46356;DHT22;32066;49.474;11.106;2023-05-10T05:35:05;16.40;99.70
46356;DHT22;32066;49.474;11.106;2023-05-10T05:37:33;16.30;99.90
46356;DHT22;32066;49.474;11.106;2023-05-10T05:40:03;16.40;99.90
46356;DHT22;32066;49.474;11.106;2023-05-10T05:42:32;16.50;99.70
46356;DHT22;32066;49.474;11.106;2023-05-10T05:45:00;16.50;99.20
46356;DHT22;32066;49.474;11.106;2023-05-10T05:47:29;16.50;99.20
46356;DHT22;32066;49.474;11.106;2023-05-10T05:49:58;16.50;99.20
46356;DHT22;32066;49.474;11.106;2023-05-10T05:52:30;16.50;99.10
46356;DHT22;32066;49.474;11.106;2023-05-10T05:54:58;16.50;99.20
46356;DHT22;32066;49.474;11.106;2023-05-10T05:57:27;16.50;99.40
46356;DHT22;32066;49.474;11.106;2023-05-10T05:59:56;16.40;99.60
46356;DHT22;32066;49.474;11.106;2023-05-10T06:02:25;16.30;99.30
46356;DHT22;32066;49.474;11.106;2023-05-10T06:04:53;16.30;99.40
46356;DHT22;32066;49.474;11.106;2023-05-10T06:07:22;16.20;99.50
46356;DHT22;32066;49.474;11.106;2023-05-10T06:09:53;16.20;99.60
46356;DHT22;32066;49.474;11.106;2023-05-10T06:12:22;16.20;99.70
46356;DHT22;32066;49.474;11.106;2023-05-10T06:14:50;16.20;99.70
46356;DHT22;32066;49.474;11.106;2023-05-10T06:17:19;16.30;99.70
46356;DHT22;32066;49.474;11.106;2023-05-10T06:19:48;16.40;99.40
46356;DHT22;32066;49.474;11.106;2023-05-10T06:22:16;16.40;99.50
46356;DHT22;32066;49.474;11.106;2023-05-10T06:24:45;16.40;99.60
46356;DHT22;32066;49.474;11.106;2023-05-10T06:27:16;16.30;99.60
46356;DHT22;32066;49.474;11.106;2023-05-10T06:29:45;16.50;99.50
46356;DHT22;32066;49.474;11.106;2023-05-10T06:32:13;16.50;99.30
46356;DHT22;32066;49.474;11.106;2023-05-10T06:34:42;16.50;99.20
46356;DHT22;32066;49.474;11.106;2023-05-10T06:37:12;16.40;99.30
46356;DHT22;32066;49.474;11.106;2023-05-10T06:39:40;16.50;99.10
46356;DHT22;32066;49.474;11.106;2023-05-10T06:42:09;16.50;99.20
46356;DHT22;32066;49.474;11.106;2023-05-10T06:44:40;16.40;99.50
46356;DHT22;32066;49.474;11.106;2023-05-10T06:47:09;16.40;99.20
46356;DHT22;32066;49.474;11.106;2023-05-10T06:49:37;16.50;98.90
46356;DHT22;32066;49.474;11.106;2023-05-10T06:52:06;16.50;99.00
46356;DHT22;32066;49.474;11.106;2023-05-10T06:54:35;16.60;98.90
46356;DHT22;32066;49.474;11.106;2023-05-10T06:57:03;16.70;98.60
46356;DHT22;32066;49.474;11.106;2023-05-10T06:59:32;16.70;98.50
46356;DHT22;32066;49.474;11.106;2023-05-10T07:02:05;16.80;98.50
46356;DHT22;32066;49.474;11.106;2023-05-10T07:04:34;16.80;97.90
46356;DHT22;32066;49.474;11.106;2023-05-10T07:07:02;16.60;98.10
46356;DHT22;32066;49.474;11.106;2023-05-10T07:09:31;16.70;98.30
46356;DHT22;32066;49.474;11.106;2023-05-10T07:11:59;16.80;98.30
46356;DHT22;32066;49.474;11.106;2023-05-10T07:14:28;16.90;98.10
46356;DHT22;32066;49.474;11.106;2023-05-10T07:16:57;16.80;98.20
46356;DHT22;32066;49.474;11.106;2023-05-10T07:19:28;16.70;98.20
46356;DHT22;32066;49.474;11.106;2023-05-10T07:21:58;16.90;97.70
46356;DHT22;32066;49.474;11.106;2023-05-10T07:24:27;16.90;97.30
46356;DHT22;32066;49.474;11.106;2023-05-10T07:26:56;17.00;97.00
46356;DHT22;32066;49.474;11.106;2023-05-10T07:29:25;17.00;97.20
46356;DHT22;32066;49.474;11.106;2023-05-10T07:31:54;17.00;97.00
46356;DHT22;32066;49.474;11.106;2023-05-10T07:34:23;17.00;97.10
46356;DHT22;32066;49.474;11.106;2023-05-10T07:36:54;17.00;96.90
46356;DHT22;32066;49.474;11.106;2023-05-10T07:39:22;17.10;96.70
46356;DHT22;32066;49.474;11.106;2023-05-10T07:41:51;17.20;96.80
46356;DHT22;32066;49.474;11.106;2023-05-10T07:44:20;17.20;96.10
46356;DHT22;32066;49.474;11.106;2023-05-10T07:46:48;17.10;96.20
46356;DHT22;32066;49.474;11.106;2023-05-10T07:49:17;17.10;96.40
46356;DHT22;32066;49.474;11.106;2023-05-10T07:51:46;17.20;96.50
46356;DHT22;32066;49.474;11.106;2023-05-10T07:54:17;17.10;96.70
46356;DHT22;32066;49.474;11.106;2023-05-10T07:56:46;17.10;96.60
46356;DHT22;32066;49.474;11.106;2023-05-10T07:59:16;17.20;96.60
46356;DHT22;32066;49.474;11.106;2023-05-10T08:01:44;17.10;96.20
46356;DHT22;32066;49.474;11.106;2023-05-10T08:04:13;17.00;96.10
46356;DHT22;32066;49.474;11.106;2023-05-10T08:06:42;17.10;96.30
46356;DHT22;32066;49.474;11.106;2023-05-10T08:09:10;16.90;96.30
46356;DHT22;32066;49.474;11.106;2023-05-10T08:11:41;16.90;96.50
46356;DHT22;32066;49.474;11.106;2023-05-10T08:14:10;16.90;96.60
46356;DHT22;32066;49.474;11.106;2023-05-10T08:16:39;17.00;96.50
46356;DHT22;32066;49.474;11.106;2023-05-10T08:19:08;17.10;96.60
46356;DHT22;32066;49.474;11.106;2023-05-10T08:21:36;17.10;96.60
46356;DHT22;32066;49.474;11.106;2023-05-10T08:24:06;17.20;96.40
46356;DHT22;32066;49.474;11.106;2023-05-10T08:26:40;17.20;96.10
46356;DHT22;32066;49.474;11.106;2023-05-10T08:29:09;17.30;96.10
46356;DHT22;32066;49.474;11.106;2023-05-10T08:31:37;17.20;96.10
46356;DHT22;32066;49.474;11.106;2023-05-10T08:34:06;17.30;96.00
46356;DHT22;32066;49.474;11.106;2023-05-10T08:36:35;17.30;96.00
46356;DHT22;32066;49.474;11.106;2023-05-10T08:39:03;17.30;96.10
46356;DHT22;32066;49.474;11.106;2023-05-10T08:41:33;17.40;96.20
46356;DHT22;32066;49.474;11.106;2023-05-10T08:44:08;17.50;96.00
46356;DHT22;32066;49.474;11.106;2023-05-10T08:46:37;17.60;95.50
46356;DHT22;32066;49.474;11.106;2023-05-10T08:49:12;17.70;95.20
46356;DHT22;32066;49.474;11.106;2023-05-10T08:51:46;17.80;94.90
46356;DHT22;32066;49.474;11.106;2023-05-10T08:54:16;17.80;94.80
46356;DHT22;32066;49.474;11.106;2023-05-10T08:56:45;17.80;94.60
46356;DHT22;32066;49.474;11.106;2023-05-10T08:59:17;17.90;94.90
46356;DHT22;32066;49.474;11.106;2023-05-10T09:01:47;17.90;94.60
46356;DHT22;32066;49.474;11.106;2023-05-10T09:04:16;17.90;94.60
46356;DHT22;32066;49.474;11.106;2023-05-10T09:06:45;18.00;94.60
46356;DHT22;32066;49.474;11.106;2023-05-10T09:09:14;17.90;94.40
46356;DHT22;32066;49.474;11.106;2023-05-10T09:11:43;18.00;94.30
46356;DHT22;32066;49.474;11.106;2023-05-10T09:14:12;18.00;94.40
46356;DHT22;32066;49.474;11.106;2023-05-10T09:16:44;17.90;94.90
46356;DHT22;32066;49.474;11.106;2023-05-10T09:19:13;17.70;95.30
46356;DHT22;32066;49.474;11.106;2023-05-10T09:21:42;17.10;96.20
46356;DHT22;32066;49.474;11.106;2023-05-10T09:26:46;16.50;97.40
46356;DHT22;32066;49.474;11.106;2023-05-10T09:29:15;16.60;97.90
46356;DHT22;32066;49.474;11.106;2023-05-10T09:31:48;16.70;98.10
46356;DHT22;32066;49.474;11.106;2023-05-10T09:34:28;16.80;97.80
46356;DHT22;32066;49.474;11.106;2023-05-10T09:36:58;16.90;97.90
46356;DHT22;32066;49.474;11.106;2023-05-10T09:39:34;16.70;98.00
46356;DHT22;32066;49.474;11.106;2023-05-10T09:42:04;16.80;98.50
46356;DHT22;32066;49.474;11.106;2023-05-10T09:44:34;16.90;98.80
46356;DHT22;32066;49.474;11.106;2023-05-10T09:47:06;17.00;98.70
46356;DHT22;32066;49.474;11.106;2023-05-10T09:49:34;17.00;98.90
46356;DHT22;32066;49.474;11.106;2023-05-10T09:52:04;17.10;98.90
46356;DHT22;32066;49.474;11.106;2023-05-10T09:54:34;17.20;99.00
46356;DHT22;32066;49.474;11.106;2023-05-10T09:57:03;17.40;98.40
46356;DHT22;32066;49.474;11.106;2023-05-10T09:59:33;17.60;98.10
46356;DHT22;32066;49.474;11.106;2023-05-10T10:02:02;17.70;98.00
46356;DHT22;32066;49.474;11.106;2023-05-10T10:04:39;17.80;97.50
46356;DHT22;32066;49.474;11.106;2023-05-10T10:07:08;17.90;96.70
46356;DHT22;32066;49.474;11.106;2023-05-10T10:09:36;18.10;96.60
46356;DHT22;32066;49.474;11.106;2023-05-10T10:12:06;18.20;95.40
46356;DHT22;32066;49.474;11.106;2023-05-10T10:14:34;18.20;95.50
46356;DHT22;32066;49.474;11.106;2023-05-10T10:17:03;18.40;95.30
46356;DHT22;32066;49.474;11.106;2023-05-10T10:19:36;18.40;95.00
46356;DHT22;32066;49.474;11.106;2023-05-10T10:22:04;18.40;94.80
46356;DHT22;32066;49.474;11.106;2023-05-10T10:24:33;18.40;94.20
46356;DHT22;32066;49.474;11.106;2023-05-10T10:27:10;18.60;93.80
46356;DHT22;32066;49.474;11.106;2023-05-10T10:29:47;18.80;93.80
46356;DHT22;32066;49.474;11.106;2023-05-10T10:32:25;18.90;92.80
46356;DHT22;32066;49.474;11.106;2023-05-10T10:34:59;19.00;92.60
46356;DHT22;32066;49.474;11.106;2023-05-10T10:37:42;19.20;92.30
46356;DHT22;32066;49.474;11.106;2023-05-10T10:40:23;19.30;92.60
46356;DHT22;32066;49.474;11.106;2023-05-10T10:42:52;19.40;91.40
46356;DHT22;32066;49.474;11.106;2023-05-10T10:45:23;19.40;90.30
46356;DHT22;32066;49.474;11.106;2023-05-10T10:48:20;19.40;90.40
46356;DHT22;32066;49.474;11.106;2023-05-10T10:50:58;19.40;90.50
46356;DHT22;32066;49.474;11.106;2023-05-10T10:53:27;19.30;90.60
46356;DHT22;32066;49.474;11.106;2023-05-10T10:56:05;19.10;90.60
46356;DHT22;32066;49.474;11.106;2023-05-10T10:58:35;18.90;90.50
46356;DHT22;32066;49.474;11.106;2023-05-10T11:01:14;18.80;90.80
46356;DHT22;32066;49.474;11.106;2023-05-10T11:04:17;18.70;90.60
46356;DHT22;32066;49.474;11.106;2023-05-10T11:06:49;18.50;90.70
46356;DHT22;32066;49.474;11.106;2023-05-10T11:09:17;18.40;91.10
46356;DHT22;32066;49.474;11.106;2023-05-10T11:11:51;18.30;91.60
46356;DHT22;32066;49.474;11.106;2023-05-10T11:14:21;18.30;91.60
46356;DHT22;32066;49.474;11.106;2023-05-10T11:16:50;18.30;91.80
46356;DHT22;32066;49.474;11.106;2023-05-10T11:19:19;18.40;92.00
46356;DHT22;32066;49.474;11.106;2023-05-10T11:21:51;18.30;91.90
46356;DHT22;32066;49.474;11.106;2023-05-10T11:24:39;18.30;92.00
46356;DHT22;32066;49.474;11.106;2023-05-10T11:27:08;18.40;92.00
46356;DHT22;32066;49.474;11.106;2023-05-10T11:29:37;18.30;92.00
46356;DHT22;32066;49.474;11.106;2023-05-10T11:32:06;18.30;92.40
46356;DHT22;32066;49.474;11.106;2023-05-10T11:34:35;18.20;92.50
46356;DHT22;32066;49.474;11.106;2023-05-10T11:37:06;18.30;92.40
46356;DHT22;32066;49.474;11.106;2023-05-10T11:39:34;18.40;92.60
46356;DHT22;32066;49.474;11.106;2023-05-10T11:42:03;18.40;92.50
46356;DHT22;32066;49.474;11.106;2023-05-10T11:44:34;18.40;92.00
46356;DHT22;32066;49.474;11.106;2023-05-10T11:47:03;18.40;92.20
46356;DHT22;32066;49.474;11.106;2023-05-10T11:49:33;18.40;92.00
46356;DHT22;32066;49.474;11.106;2023-05-10T11:52:08;18.40;91.30
46356;DHT22;32066;49.474;11.106;2023-05-10T11:54:37;18.30;91.60
46356;DHT22;32066;49.474;11.106;2023-05-10T11:57:05;18.40;91.30
46356;DHT22;32066;49.474;11.106;2023-05-10T11:59:34;18.50;91.20
46356;DHT22;32066;49.474;11.106;2023-05-10T12:02:03;18.50;91.10
46356;DHT22;32066;49.474;11.106;2023-05-10T12:04:32;18.70;91.00
46356;DHT22;32066;49.474;11.106;2023-05-10T12:07:01;18.80;90.70
46356;DHT22;32066;49.474;11.106;2023-05-10T12:09:32;18.80;90.70
46356;DHT22;32066;49.474;11.106;2023-05-10T12:12:02;18.90;90.70
46356;DHT22;32066;49.474;11.106;2023-05-10T12:14:34;18.80;91.00
46356;DHT22;32066;49.474;11.106;2023-05-10T12:17:02;18.80;91.10
46356;DHT22;32066;49.474;11.106;2023-05-10T12:19:37;18.90;91.10
46356;DHT22;32066;49.474;11.106;2023-05-10T12:22:06;18.80;91.40
46356;DHT22;32066;49.474;11.106;2023-05-10T12:24:37;18.70;91.80
46356;DHT22;32066;49.474;11.106;2023-05-10T12:27:08;18.80;91.70
46356;DHT22;32066;49.474;11.106;2023-05-10T12:29:41;18.80;91.80
46356;DHT22;32066;49.474;11.106;2023-05-10T12:32:11;18.80;91.80
46356;DHT22;32066;49.474;11.106;2023-05-10T12:34:39;18.80;91.50
46356;DHT22;32066;49.474;11.106;2023-05-10T12:37:08;18.60;91.10
46356;DHT22;32066;49.474;11.106;2023-05-10T12:39:44;18.70;90.80
46356;DHT22;32066;49.474;11.106;2023-05-10T12:42:12;18.60;90.60
46356;DHT22;32066;49.474;11.106;2023-05-10T12:44:41;18.70;90.80
46356;DHT22;32066;49.474;11.106;2023-05-10T12:47:09;18.80;90.80
46356;DHT22;32066;49.474;11.106;2023-05-10T12:49:38;18.80;90.90
46356;DHT22;32066;49.474;11.106;2023-05-10T12:52:06;18.90;90.90
46356;DHT22;32066;49.474;11.106;2023-05-10T12:54:35;19.00;91.00
46356;DHT22;32066;49.474;11.106;2023-05-10T12:57:06;19.00;91.00
46356;DHT22;32066;49.474;11.106;2023-05-10T13:02:05;18.60;90.90
46356;DHT22;32066;49.474;11.106;2023-05-10T13:04:34;18.60;91.10
46356;DHT22;32066;49.474;11.106;2023-05-10T13:07:05;18.70;91.00
46356;DHT22;32066;49.474;11.106;2023-05-10T13:09:33;18.80;90.50
46356;DHT22;32066;49.474;11.106;2023-05-10T13:12:02;18.90;90.50
46356;DHT22;32066;49.474;11.106;2023-05-10T13:14:34;18.80;90.50
46356;DHT22;32066;49.474;11.106;2023-05-10T13:17:02;18.70;90.80
46356;DHT22;32066;49.474;11.106;2023-05-10T13:19:31;18.40;91.10
46356;DHT22;32066;49.474;11.106;2023-05-10T13:22:00;18.30;91.30
46356;DHT22;32066;49.474;11.106;2023-05-10T13:24:28;18.40;91.40
46356;DHT22;32066;49.474;11.106;2023-05-10T13:26:57;18.60;91.40
46356;DHT22;32066;49.474;11.106;2023-05-10T13:29:26;18.50;91.20
46356;DHT22;32066;49.474;11.106;2023-05-10T13:31:57;18.40;90.40
46356;DHT22;32066;49.474;11.106;2023-05-10T13:34:26;18.30;90.70
46356;DHT22;32066;49.474;11.106;2023-05-10T13:36:55;18.30;90.90
46356;DHT22;32066;49.474;11.106;2023-05-10T13:39:24;18.20;91.90
46356;DHT22;32066;49.474;11.106;2023-05-10T13:41:52;18.20;92.90
46356;DHT22;32066;49.474;11.106;2023-05-10T13:44:21;18.00;94.10
46356;DHT22;32066;49.474;11.106;2023-05-10T13:46:49;18.00;94.50
46356;DHT22;32066;49.474;11.106;2023-05-10T13:49:21;17.90;94.60
46356;DHT22;32066;49.474;11.106;2023-05-10T13:51:49;17.80;94.40
46356;DHT22;32066;49.474;11.106;2023-05-10T13:54:18;17.70;95.40
46356;DHT22;32066;49.474;11.106;2023-05-10T13:56:47;17.70;96.00
46356;DHT22;32066;49.474;11.106;2023-05-10T13:59:16;17.70;96.10
46356;DHT22;32066;49.474;11.106;2023-05-10T14:01:45;17.80;95.90
46356;DHT22;32066;49.474;11.106;2023-05-10T14:04:13;18.00;95.80
46356;DHT22;32066;49.474;11.106;2023-05-10T14:06:45;18.20;95.60
46356;DHT22;32066;49.474;11.106;2023-05-10T14:09:13;18.40;95.10
46356;DHT22;32066;49.474;11.106;2023-05-10T14:11:42;18.60;94.20
46356;DHT22;32066;49.474;11.106;2023-05-10T14:14:11;18.60;94.00
46356;DHT22;32066;49.474;11.106;2023-05-10T14:16:42;18.70;94.30
46356;DHT22;32066;49.474;11.106;2023-05-10T14:19:11;18.70;94.40
46356;DHT22;32066;49.474;11.106;2023-05-10T14:21:40;18.80;94.50
46356;DHT22;32066;49.474;11.106;2023-05-10T14:24:11;18.90;94.30
46356;DHT22;32066;49.474;11.106;2023-05-10T14:26:39;19.00;94.70
46356;DHT22;32066;49.474;11.106;2023-05-10T14:29:08;19.00;94.90
46356;DHT22;32066;49.474;11.106;2023-05-10T14:31:37;18.90;94.60
46356;DHT22;32066;49.474;11.106;2023-05-10T14:34:05;19.00;94.20
46356;DHT22;32066;49.474;11.106;2023-05-10T14:36:34;19.00;94.00
46356;DHT22;32066;49.474;11.106;2023-05-10T14:39:03;19.00;94.00
46356;DHT22;32066;49.474;11.106;2023-05-10T14:41:34;18.90;94.40
46356;DHT22;32066;49.474;11.106;2023-05-10T14:44:04;18.90;94.60
46356;DHT22;32066;49.474;11.106;2023-05-10T14:46:33;18.90;94.70
46356;DHT22;32066;49.474;11.106;2023-05-10T14:49:01;18.90;94.80
46356;DHT22;32066;49.474;11.106;2023-05-10T14:51:30;19.00;94.80
46356;DHT22;32066;49.474;11.106;2023-05-10T14:53:59;19.10;93.80
46356;DHT22;32066;49.474;11.106;2023-05-10T14:56:28;19.10;92.80
46356;DHT22;32066;49.474;11.106;2023-05-10T14:58:59;18.90;92.60
46356;DHT22;32066;49.474;11.106;2023-05-10T15:01:29;19.00;92.20
46356;DHT22;32066;49.474;11.106;2023-05-10T15:03:58;19.00;91.90
46356;DHT22;32066;49.474;11.106;2023-05-10T15:06:31;19.10;92.20
46356;DHT22;32066;49.474;11.106;2023-05-10T15:09:00;19.10;92.00
46356;DHT22;32066;49.474;11.106;2023-05-10T15:11:29;19.00;92.10
46356;DHT22;32066;49.474;11.106;2023-05-10T15:14:00;19.10;92.50
46356;DHT22;32066;49.474;11.106;2023-05-10T15:16:29;19.10;92.20
46356;DHT22;32066;49.474;11.106;2023-05-10T15:18:58;19.10;92.60
46356;DHT22;32066;49.474;11.106;2023-05-10T15:21:27;18.80;93.00
46356;DHT22;32066;49.474;11.106;2023-05-10T15:24:00;18.50;91.00
46356;DHT22;32066;49.474;11.106;2023-05-10T15:26:29;18.10;90.10
46356;DHT22;32066;49.474;11.106;2023-05-10T15:29:00;17.70;90.80
46356;DHT22;32066;49.474;11.106;2023-05-10T15:31:29;17.70;90.80
46356;DHT22;32066;49.474;11.106;2023-05-10T15:34:00;17.70;90.80
46356;DHT22;32066;49.474;11.106;2023-05-10T15:36:29;17.70;90.90
46356;DHT22;32066;49.474;11.106;2023-05-10T15:38:57;17.80;90.90
46356;DHT22;32066;49.474;11.106;2023-05-10T15:41:26;17.80;91.10
46356;DHT22;32066;49.474;11.106;2023-05-10T15:43:55;17.80;91.10
46356;DHT22;32066;49.474;11.106;2023-05-10T15:46:28;17.80;91.20